createdAt,value
2022-11-16T00:01:54.462Z,104.85
2022-11-16T00:04:21.313Z,98.85
2022-11-16T00:06:49.630Z,103.43
2022-11-16T00:09:22.881Z,98.00
2022-11-16T00:11:51.743Z,109.82
2022-11-16T00:14:19.823Z,101.95
2022-11-16T00:16:46.936Z,109.35
2022-11-16T00:19:14.133Z,101.50
2022-11-16T00:21:41.263Z,105.43
2022-11-16T00:24:10.594Z,98.45
2022-11-16T00:26:37.406Z,100.55
2022-11-16T00:29:04.533Z,102.85
2022-11-16T00:31:31.537Z,98.90
2022-11-16T00:33:58.528Z,88.38
2022-11-16T00:36:25.358Z,88.10
2022-11-16T00:38:54.148Z,90.47
2022-11-16T00:41:21.183Z,89.07
2022-11-16T00:43:50.162Z,85.30
2022-11-16T00:46:17.376Z,77.72
2022-11-16T00:48:44.282Z,79.45
2022-11-16T00:51:12.168Z,78.72
2022-11-16T00:53:39.357Z,74.30
2022-11-16T00:56:06.733Z,74.82
2022-11-16T00:59:11.736Z,80.97
2022-11-16T01:02:41.988Z,74.53
2022-11-16T01:05:09.953Z,75.68
2022-11-16T01:07:38.441Z,74.15
2022-11-16T01:10:08.919Z,75.32
2022-11-16T01:12:35.709Z,72.10
2022-11-16T01:15:03.102Z,59.15
2022-11-16T01:17:30.006Z,63.25
2022-11-16T01:19:56.772Z,65.82
2022-11-16T01:22:23.597Z,64.63
2022-11-16T01:24:53.194Z,63.88
2022-11-16T01:27:20.097Z,62.15
2022-11-16T01:29:47.075Z,56.50
2022-11-16T01:32:16.909Z,56.45
2022-11-16T01:34:43.705Z,60.47
2022-11-16T01:37:10.585Z,65.07
2022-11-16T01:39:37.698Z,56.33
2022-11-16T01:42:04.894Z,66.32
2022-11-16T01:44:31.597Z,61.83
2022-11-16T01:46:59.644Z,62.33
2022-11-16T01:49:32.344Z,58.63
2022-11-16T01:52:05.064Z,64.18
2022-11-16T01:54:34.595Z,58.92
2022-11-16T01:57:05.535Z,59.03
2022-11-16T01:59:35.969Z,62.60
2022-11-16T02:02:03.576Z,61.08
2022-11-16T02:04:32.216Z,69.65
2022-11-16T02:07:27.868Z,77.97
2022-11-16T02:10:00.808Z,72.40
2022-11-16T02:13:11.840Z,70.53
2022-11-16T02:15:48.045Z,68.38
2022-11-16T02:18:48.554Z,69.45
2022-11-16T02:21:28.197Z,65.50
2022-11-16T02:24:32.265Z,74.22
2022-11-16T02:26:58.984Z,67.28
2022-11-16T02:29:31.546Z,66.68
2022-11-16T02:32:17.684Z,66.63
2022-11-16T02:34:57.046Z,63.90
2022-11-16T02:37:26.538Z,64.80
2022-11-16T02:39:57.798Z,56.53
2022-11-16T02:42:33.033Z,63.28
2022-11-16T02:45:02.397Z,64.50
2022-11-16T02:47:33.429Z,61.88
2022-11-16T02:50:05.703Z,67.63
2022-11-16T02:52:32.562Z,67.22
2022-11-16T02:54:59.360Z,73.90
2022-11-16T02:57:40.749Z,69.07
2022-11-16T03:00:15.926Z,70.18
2022-11-16T03:03:00.803Z,71.88
2022-11-16T03:05:33.819Z,63.30
2022-11-16T03:08:18.704Z,63.83
2022-11-16T03:11:10.564Z,67.93
2022-11-16T03:13:39.300Z,64.28
2022-11-16T03:16:34.946Z,66.70
2022-11-16T03:19:05.826Z,58.67
2022-11-16T03:22:07.601Z,61.63
2022-11-16T03:24:34.592Z,64.35
2022-11-16T03:27:26.017Z,62.75
2022-11-16T03:30:00.282Z,64.45
2022-11-16T03:32:46.288Z,58.70
2022-11-16T03:35:21.320Z,58.58
2022-11-16T03:37:50.974Z,60.72
2022-11-16T03:40:19.451Z,58.72
2022-11-16T03:42:49.820Z,64.57
2022-11-16T03:45:18.918Z,63.55
2022-11-16T03:47:46.567Z,67.13
2022-11-16T03:50:14.061Z,60.38
2022-11-16T03:52:41.471Z,62.90
2022-11-16T03:55:08.723Z,59.70
2022-11-16T03:57:35.855Z,61.90
2022-11-16T04:00:02.885Z,57.83
2022-11-16T04:02:29.742Z,57.45
2022-11-16T04:05:15.345Z,58.67
2022-11-16T04:08:01.205Z,61.92
2022-11-16T04:10:46.831Z,63.58
2022-11-16T04:13:34.171Z,59.05
2022-11-16T04:16:19.765Z,62.13
2022-11-16T04:19:05.402Z,61.58
2022-11-16T04:21:58.512Z,64.78
2022-11-16T04:24:29.761Z,59.25
2022-11-16T04:27:19.390Z,59.38
2022-11-16T04:29:46.850Z,60.20
2022-11-16T04:32:32.178Z,60.50
2022-11-16T04:35:17.562Z,58.05
2022-11-16T04:37:50.620Z,56.38
2022-11-16T04:40:24.919Z,53.33
2022-11-16T04:42:57.496Z,50.63
2022-11-16T04:45:51.588Z,60.28
2022-11-16T04:48:19.986Z,58.70
2022-11-16T04:50:47.808Z,61.67
2022-11-16T04:53:15.554Z,60.08
2022-11-16T04:55:42.755Z,56.67
2022-11-16T04:58:09.598Z,59.10
2022-11-16T05:00:36.520Z,57.65
2022-11-16T05:03:05.035Z,57.67
2022-11-16T05:05:31.845Z,57.05
2022-11-16T05:07:58.733Z,64.50
2022-11-16T05:10:25.854Z,62.65
2022-11-16T05:12:52.605Z,59.25
2022-11-16T05:15:19.989Z,60.53
2022-11-16T05:17:47.627Z,55.50
2022-11-16T05:20:33.045Z,54.80
2022-11-16T05:23:00.206Z,54.85
2022-11-16T05:25:31.269Z,57.10
2022-11-16T05:28:00.786Z,56.58
2022-11-16T05:30:29.796Z,54.60
2022-11-16T05:32:56.734Z,59.70
2022-11-16T05:35:23.495Z,59.35
2022-11-16T05:37:50.320Z,60.00
2022-11-16T05:40:17.206Z,56.40
2022-11-16T05:42:44.038Z,61.88
2022-11-16T05:45:11.146Z,52.45
2022-11-16T05:47:37.939Z,48.88
2022-11-16T05:50:05.157Z,54.25
2022-11-16T05:52:32.033Z,51.42
2022-11-16T05:54:58.825Z,46.83
2022-11-16T05:57:25.587Z,44.92
2022-11-16T06:00:00.156Z,48.67
2022-11-16T06:02:27.264Z,54.63
2022-11-16T06:04:54.085Z,42.30
2022-11-16T06:07:21.039Z,44.10
2022-11-16T06:09:47.838Z,44.90
2022-11-16T06:12:14.667Z,47.70
2022-11-16T06:14:41.495Z,42.83
2022-11-16T06:17:08.827Z,44.22
2022-11-16T06:19:35.596Z,36.85
2022-11-16T06:22:02.434Z,38.78
2022-11-16T06:24:29.266Z,35.10
2022-11-16T06:26:56.053Z,36.90
2022-11-16T06:29:23.074Z,36.53
2022-11-16T06:31:49.973Z,36.33
2022-11-16T06:34:17.195Z,35.63
2022-11-16T06:36:43.999Z,35.33
2022-11-16T06:39:13.037Z,32.80
2022-11-16T06:41:41.680Z,35.65
2022-11-16T06:44:08.757Z,32.92
2022-11-16T06:46:35.549Z,34.10
2022-11-16T06:49:02.340Z,33.60
2022-11-16T06:51:29.214Z,35.75
2022-11-16T06:53:55.978Z,39.55
2022-11-16T06:56:22.885Z,38.35
2022-11-16T06:58:53.196Z,36.03
2022-11-16T07:01:20.572Z,38.38
2022-11-16T07:03:47.509Z,32.65
2022-11-16T07:06:14.969Z,37.67
2022-11-16T07:08:41.834Z,30.90
2022-11-16T07:11:10.031Z,35.28
2022-11-16T07:13:38.193Z,36.20
2022-11-16T07:16:09.537Z,39.13
2022-11-16T07:18:38.207Z,45.88
2022-11-16T07:21:16.745Z,40.35
2022-11-16T07:23:44.826Z,34.25
2022-11-16T07:26:11.978Z,38.60
2022-11-16T07:28:42.171Z,34.20
2022-11-16T07:31:15.464Z,31.55
2022-11-16T07:33:42.402Z,34.40
2022-11-16T07:36:15.574Z,35.90
2022-11-16T07:38:42.504Z,32.00
2022-11-16T07:41:18.128Z,26.48
2022-11-16T07:43:51.552Z,29.67
2022-11-16T07:46:51.477Z,30.70
2022-11-16T07:49:14.010Z,29.13
2022-11-16T07:51:40.952Z,29.17
2022-11-16T07:54:08.394Z,35.53
2022-11-16T07:56:35.312Z,37.65
2022-11-16T07:59:02.563Z,34.58
2022-11-16T08:01:29.568Z,34.30
2022-11-16T08:03:56.544Z,38.03
2022-11-16T08:06:26.107Z,39.47
2022-11-16T08:08:57.970Z,36.60
2022-11-16T08:11:26.077Z,36.35
2022-11-16T08:13:53.060Z,35.05
2022-11-16T08:16:22.334Z,33.65
2022-11-16T08:18:49.699Z,32.15
2022-11-16T08:21:18.564Z,35.90
2022-11-16T08:23:46.008Z,43.38
2022-11-16T08:26:18.646Z,43.65
2022-11-16T08:28:47.488Z,37.10
2022-11-16T08:31:17.069Z,30.88
2022-11-16T08:33:43.899Z,37.78
2022-11-16T08:36:17.253Z,33.15
2022-11-16T08:38:46.373Z,32.63
2022-11-16T08:41:14.283Z,27.83
2022-11-16T08:43:41.637Z,28.15
2022-11-16T08:46:09.997Z,29.30
2022-11-16T08:48:37.674Z,30.63
2022-11-16T08:51:21.556Z,36.45
2022-11-16T08:53:49.612Z,41.85
2022-11-16T08:56:18.696Z,37.88
2022-11-16T08:58:52.614Z,35.60
2022-11-16T09:01:25.702Z,32.95
2022-11-16T09:03:53.837Z,33.08
2022-11-16T09:06:21.573Z,42.03
2022-11-16T09:08:48.801Z,52.08
2022-11-16T09:11:18.599Z,38.22
2022-11-16T09:13:47.120Z,40.75
2022-11-16T09:16:16.863Z,37.22
2022-11-16T09:18:46.793Z,32.67
2022-11-16T09:21:19.253Z,33.20
2022-11-16T09:23:47.254Z,35.25
2022-11-16T09:26:14.716Z,34.67
2022-11-16T09:28:41.819Z,34.67
2022-11-16T09:31:10.368Z,35.28
2022-11-16T09:33:38.068Z,38.53
2022-11-16T09:36:08.070Z,37.97
2022-11-16T09:39:13.959Z,39.28
2022-11-16T09:41:26.589Z,36.83
2022-11-16T09:44:10.005Z,37.83
2022-11-16T09:46:56.054Z,34.08
2022-11-16T09:49:31.370Z,35.00
2022-11-16T09:52:03.072Z,33.50
2022-11-16T09:54:36.237Z,36.25
2022-11-16T09:57:12.367Z,38.67
2022-11-16T10:02:42.269Z,50.70
2022-11-16T10:05:20.575Z,54.47
2022-11-16T10:07:51.720Z,50.58
2022-11-16T10:10:42.897Z,55.92
2022-11-16T10:13:09.834Z,57.20
2022-11-16T10:16:03.314Z,56.20
2022-11-16T10:18:54.265Z,59.03
2022-11-16T10:21:42.332Z,57.05
2022-11-16T10:24:56.709Z,46.90
2022-11-16T10:27:44.726Z,51.70
2022-11-16T10:30:21.376Z,48.00
2022-11-16T10:33:08.160Z,50.03
2022-11-16T10:35:42.589Z,53.85
2022-11-16T10:38:20.509Z,57.75
2022-11-16T10:40:52.036Z,52.95
2022-11-16T10:43:23.401Z,61.25
2022-11-16T10:46:08.617Z,56.30
2022-11-16T10:49:07.460Z,52.97
2022-11-16T10:51:34.431Z,67.38
2022-11-16T10:54:01.406Z,60.40
2022-11-16T10:56:42.777Z,65.22
2022-11-16T10:59:18.041Z,72.65
2022-11-16T11:01:53.468Z,70.10
2022-11-16T11:04:24.533Z,66.30
2022-11-16T11:06:55.962Z,66.53
2022-11-16T11:09:29.554Z,68.32
2022-11-16T11:12:38.327Z,63.22
2022-11-16T11:15:27.132Z,72.45
2022-11-16T11:18:12.219Z,65.88
2022-11-16T11:20:44.732Z,62.28
2022-11-16T11:23:17.090Z,71.82
2022-11-16T11:25:59.402Z,67.55
2022-11-16T11:28:32.809Z,70.60
2022-11-16T11:31:04.614Z,71.00
2022-11-16T11:34:00.731Z,63.25
2022-11-16T11:36:40.652Z,68.13
2022-11-16T11:39:13.753Z,44.50
2022-11-16T11:41:43.296Z,49.45
2022-11-16T11:44:13.120Z,48.78
2022-11-16T11:47:35.047Z,48.55
2022-11-16T11:49:40.334Z,42.35
2022-11-16T11:52:21.078Z,45.97
2022-11-16T11:54:52.361Z,53.83
2022-11-16T11:57:24.008Z,49.47
2022-11-16T11:59:53.373Z,47.53
2022-11-16T12:02:40.179Z,49.33
2022-11-16T12:05:48.695Z,50.25
2022-11-16T12:08:50.987Z,49.28
2022-11-16T12:11:47.645Z,44.50
2022-11-16T12:14:35.601Z,53.33
2022-11-16T12:17:23.832Z,50.88
2022-11-16T12:20:20.006Z,49.75
2022-11-16T12:23:03.761Z,46.45
2022-11-16T12:26:00.868Z,56.10
2022-11-16T12:28:53.333Z,50.30
2022-11-16T12:31:34.959Z,56.72
2022-11-16T12:34:16.031Z,61.10
2022-11-16T12:37:21.272Z,55.75
2022-11-16T12:40:09.652Z,55.00
2022-11-16T12:42:55.238Z,50.10
2022-11-16T12:45:36.100Z,49.75
2022-11-16T12:48:34.390Z,50.15
2022-11-16T12:51:19.960Z,48.78
2022-11-16T12:53:52.850Z,42.55
2022-11-16T12:57:01.548Z,34.10
2022-11-16T12:59:35.911Z,26.92
2022-11-16T13:02:05.522Z,29.55
2022-11-16T13:04:37.227Z,35.17
2022-11-16T13:07:27.875Z,29.15
2022-11-16T13:10:14.580Z,36.35
2022-11-16T13:12:43.320Z,37.20
2022-11-16T13:15:19.565Z,34.50
2022-11-16T13:18:00.034Z,31.30
2022-11-16T13:20:46.715Z,30.08
2022-11-16T13:23:22.524Z,34.17
2022-11-16T13:25:57.428Z,32.23
2022-11-16T13:28:37.653Z,33.58
2022-11-16T13:31:31.879Z,31.42
2022-11-16T13:34:15.796Z,27.63
2022-11-16T13:36:45.303Z,30.65
2022-11-16T13:39:22.590Z,31.60
2022-11-16T13:42:07.441Z,34.65
2022-11-16T13:44:35.213Z,33.28
2022-11-16T13:47:05.984Z,37.78
2022-11-16T13:49:48.339Z,32.20
2022-11-16T13:52:23.684Z,35.40
2022-11-16T13:54:56.071Z,41.92
2022-11-16T13:57:31.055Z,48.13
2022-11-16T14:00:00.688Z,51.05
2022-11-16T14:02:37.893Z,48.75
2022-11-16T14:05:16.437Z,53.10
2022-11-16T14:07:50.116Z,49.50
2022-11-16T14:10:37.185Z,48.55
2022-11-16T14:13:05.334Z,46.00
2022-11-16T14:15:37.861Z,49.97
2022-11-16T14:18:07.741Z,51.47
2022-11-16T14:20:40.123Z,45.88
2022-11-16T14:23:15.746Z,54.00
2022-11-16T14:26:07.941Z,52.75
2022-11-16T14:29:00.591Z,52.83
2022-11-16T14:31:32.166Z,50.58
2022-11-16T14:34:01.011Z,43.63
2022-11-16T14:36:40.730Z,34.35
2022-11-16T14:39:30.481Z,35.53
2022-11-16T14:42:54.269Z,31.40
2022-11-16T14:45:28.669Z,32.38
2022-11-16T14:48:06.049Z,43.15
2022-11-16T14:50:39.616Z,43.63
2022-11-16T14:53:10.039Z,45.50
2022-11-16T14:55:43.436Z,45.15
2022-11-16T14:58:18.147Z,45.75
2022-11-16T15:00:57.244Z,42.78
2022-11-16T15:03:28.078Z,42.22
2022-11-16T15:06:00.999Z,45.95
2022-11-16T15:08:42.473Z,50.78
2022-11-16T15:11:20.605Z,53.10
2022-11-16T15:13:47.796Z,45.42
2022-11-16T15:16:20.740Z,46.50
2022-11-16T15:19:01.931Z,49.45
2022-11-16T15:21:29.482Z,57.20
2022-11-16T15:26:43.820Z,56.38
2022-11-16T15:29:22.329Z,52.63
2022-11-16T15:31:49.962Z,61.28
2022-11-16T15:34:20.560Z,57.75
2022-11-16T15:36:49.373Z,57.90
2022-11-16T15:39:23.402Z,63.42
2022-11-16T15:41:52.144Z,57.42
2022-11-16T15:44:21.663Z,59.60
2022-11-16T15:46:52.178Z,65.57
2022-11-16T15:49:37.936Z,64.82
2022-11-16T15:52:05.977Z,72.43
2022-11-16T15:54:55.287Z,72.50
2022-11-16T15:57:24.174Z,75.30
2022-11-16T15:59:57.512Z,69.70
2022-11-16T16:02:29.358Z,65.35
2022-11-16T16:04:56.782Z,61.63
2022-11-16T16:07:41.763Z,61.83
2022-11-16T16:10:25.846Z,68.40
2022-11-16T16:12:54.796Z,69.20
2022-11-16T16:15:25.454Z,65.85
2022-11-16T16:17:54.695Z,69.97
2022-11-16T16:20:24.645Z,66.93
2022-11-16T16:22:52.657Z,68.00
2022-11-16T16:25:50.294Z,67.43
2022-11-16T16:28:18.476Z,72.85
2022-11-16T16:30:45.739Z,79.43
2022-11-16T16:33:19.762Z,69.95
2022-11-16T16:35:49.987Z,70.72
2022-11-16T16:38:17.191Z,72.45
2022-11-16T16:40:44.175Z,65.30
2022-11-16T16:43:11.258Z,74.20
2022-11-16T16:45:42.270Z,63.88
2022-11-16T16:48:10.769Z,69.63
2022-11-16T16:50:39.278Z,70.68
2022-11-16T16:53:06.507Z,74.13
2022-11-16T16:55:37.484Z,78.43
2022-11-16T16:58:05.615Z,78.05
2022-11-16T17:00:36.950Z,76.68
2022-11-16T17:03:04.027Z,75.55
2022-11-16T17:05:34.254Z,80.97
2022-11-16T17:08:01.887Z,76.78
2022-11-16T17:10:29.276Z,73.60
2022-11-16T17:12:57.057Z,75.10
2022-11-16T17:15:25.106Z,76.93
2022-11-16T17:17:54.930Z,73.35
2022-11-16T17:20:21.924Z,61.67
2022-11-16T17:22:50.178Z,70.45
2022-11-16T17:25:17.641Z,65.15
2022-11-16T17:27:44.795Z,65.25
2022-11-16T17:30:12.694Z,63.10
2022-11-16T17:32:44.450Z,66.45
2022-11-16T17:35:12.198Z,62.63
2022-11-16T17:37:39.446Z,61.33
2022-11-16T17:40:07.199Z,62.47
2022-11-16T17:42:35.981Z,57.47
2022-11-16T17:45:13.314Z,59.95
2022-11-16T17:47:51.537Z,64.00
2022-11-16T17:50:22.128Z,61.35
2022-11-16T17:52:49.424Z,63.10
2022-11-16T17:55:24.807Z,60.13
2022-11-16T17:57:54.351Z,59.45
2022-11-16T18:00:21.498Z,60.92
2022-11-16T18:02:48.337Z,70.40
2022-11-16T18:05:16.608Z,63.90
2022-11-16T18:07:43.806Z,60.33
2022-11-16T18:10:13.778Z,64.60
2022-11-16T18:12:44.999Z,58.05
2022-11-16T18:15:27.922Z,61.03
2022-11-16T18:17:59.347Z,73.15
2022-11-16T18:20:28.118Z,69.65
2022-11-16T18:22:58.593Z,65.20
2022-11-16T18:25:25.540Z,64.50
2022-11-16T18:27:54.653Z,62.97
2022-11-16T18:30:23.233Z,66.65
2022-11-16T18:32:50.433Z,64.78
2022-11-16T18:35:18.104Z,64.72
2022-11-16T18:37:45.063Z,70.18
2022-11-16T18:40:15.614Z,63.35
2022-11-16T18:42:42.883Z,71.75
2022-11-16T18:45:10.174Z,65.93
2022-11-16T18:47:37.046Z,60.10
2022-11-16T18:50:20.137Z,62.53
2022-11-16T18:52:49.861Z,60.10
2022-11-16T18:55:18.221Z,64.75
2022-11-16T18:57:45.236Z,63.28
2022-11-16T19:00:13.210Z,66.47
2022-11-16T19:02:40.288Z,63.20
2022-11-16T19:05:08.036Z,65.53
2022-11-16T19:07:35.232Z,63.13
2022-11-16T19:10:02.355Z,58.00
2022-11-16T19:12:29.459Z,55.75
2022-11-16T19:14:56.485Z,60.63
2022-11-16T19:17:25.622Z,59.95
2022-11-16T19:19:52.800Z,52.08
2022-11-16T19:22:20.815Z,46.63
2022-11-16T19:24:47.941Z,54.83
2022-11-16T19:27:16.862Z,53.42
2022-11-16T19:29:43.787Z,46.47
2022-11-16T19:32:10.773Z,49.38
2022-11-16T19:34:37.767Z,45.05
2022-11-16T19:37:04.672Z,49.40
2022-11-16T19:39:31.545Z,47.25
2022-11-16T19:41:58.368Z,47.85
2022-11-16T19:44:25.223Z,40.67
2022-11-16T19:46:53.322Z,42.80
2022-11-16T19:49:21.952Z,36.30
2022-11-16T19:51:49.799Z,37.80
2022-11-16T19:54:19.685Z,37.15
2022-11-16T19:56:50.518Z,40.22
2022-11-16T19:59:20.537Z,36.78
2022-11-16T20:01:47.515Z,41.00
2022-11-16T20:04:15.562Z,37.00
2022-11-16T20:06:42.508Z,47.42
2022-11-16T20:09:12.140Z,46.65
2022-11-16T20:11:41.522Z,46.88
2022-11-16T20:14:10.677Z,45.35
2022-11-16T20:16:40.423Z,43.90
2022-11-16T20:19:09.343Z,50.03
2022-11-16T20:21:41.600Z,45.42
2022-11-16T20:24:11.777Z,47.35
2022-11-16T20:26:46.493Z,45.17
2022-11-16T20:29:15.339Z,47.28
2022-11-16T20:31:43.102Z,46.92
2022-11-16T20:34:16.582Z,49.63
2022-11-16T20:36:46.390Z,46.25
2022-11-16T20:39:16.410Z,47.67
2022-11-16T20:41:44.256Z,45.40
2022-11-16T20:44:18.675Z,49.80
2022-11-16T20:46:45.644Z,48.58
2022-11-16T20:49:12.896Z,46.00
2022-11-16T20:51:40.293Z,52.20
2022-11-16T20:54:07.545Z,46.50
2022-11-16T20:56:36.822Z,48.38
2022-11-16T20:59:04.133Z,50.83
2022-11-16T21:01:34.102Z,53.03
2022-11-16T21:04:04.190Z,52.80
2022-11-16T21:06:32.139Z,49.60
2022-11-16T21:08:59.782Z,54.35
2022-11-16T21:11:29.276Z,46.28
2022-11-16T21:16:44.160Z,45.30
2022-11-16T21:19:12.093Z,48.45
2022-11-16T21:21:41.047Z,54.97
2022-11-16T21:24:13.573Z,54.42
2022-11-16T21:26:40.758Z,53.90
2022-11-16T21:29:07.942Z,57.72
2022-11-16T21:31:36.691Z,57.45
2022-11-16T21:34:04.205Z,55.35
2022-11-16T21:36:32.393Z,57.90
2022-11-16T21:38:59.786Z,55.30
2022-11-16T21:41:27.422Z,56.05
2022-11-16T21:43:54.664Z,56.58
2022-11-16T21:46:26.880Z,63.22
2022-11-16T21:48:56.792Z,57.58
2022-11-16T21:51:26.564Z,52.10
2022-11-16T21:53:54.994Z,58.00
2022-11-16T21:56:24.866Z,66.65
2022-11-16T21:58:54.380Z,57.00
2022-11-16T22:01:23.217Z,58.42
2022-11-16T22:04:10.547Z,60.83
2022-11-16T22:06:56.729Z,54.58
2022-11-16T22:09:24.772Z,57.40
2022-11-16T22:11:51.822Z,53.42
2022-11-16T22:14:19.045Z,58.92
2022-11-16T22:16:46.984Z,55.20
2022-11-16T22:19:14.258Z,63.35
2022-11-16T22:21:41.324Z,55.30
2022-11-16T22:24:08.469Z,64.95
2022-11-16T23:01:14.222Z,57.42
2022-11-16T23:06:16.947Z,55.65
2022-11-16T23:08:44.050Z,66.93
2022-11-16T23:11:34.544Z,97.97
2022-11-16T23:14:20.506Z,63.28
2022-11-16T23:16:47.517Z,67.00
2022-11-16T23:19:34.845Z,73.35
2022-11-16T23:22:20.575Z,59.28
2022-11-16T23:25:05.897Z,65.93
2022-11-16T23:28:01.040Z,64.55
2022-11-16T23:30:27.896Z,65.75
2022-11-16T23:32:55.202Z,59.47
2022-11-16T23:35:22.654Z,65.28
2022-11-16T23:37:57.564Z,62.40
2022-11-16T23:40:36.004Z,64.57
2022-11-16T23:43:22.445Z,61.90
2022-11-16T23:45:49.715Z,61.90
2022-11-16T23:48:18.584Z,59.20
2022-11-16T23:50:46.346Z,63.22
2022-11-16T23:53:14.032Z,64.13
2022-11-16T23:55:41.168Z,65.47
2022-11-16T23:58:13.430Z,56.67
